Cuthbert, GA (39840)

9:15 AM EST on February 19, 2017 (GMT -0500)
Leverett Pond | | Change Station
Active Advisory: Dense Fog Advisory

Elev 463 ft 31.93 °N, 84.52 °W | Updated 1 second ago

Overcast
Overcast
58.0 °F
Feels Like 58.0 °F
N
4.0
Wind Variable Wind from West

Today
High -- | Low -- °F
--% Chance of Precip.
Yesterday
High -- | Low -- °F
Precip. -- in
Pressure 30.08 in
Visibility 0.5 miles
Clouds Overcast 200 ft
Dew Point 57 °F
Humidity 98%
Rainfall 0.00 in
Snow Depth Not available.
7:16 AM 6:29 PM
Last Quarter, 43% visible
METAR KEUF 191358Z AUTO 00000KT 1/2SM FG OVC002 14/13 A3009 RMK AO2 SLP186 I1000 T01390133
Pressure 30.08 in
Visibility 0.5 miles
Clouds Overcast 200 ft
Dew Point 57 °F
Humidity 98%
Rainfall 0.00 in
Snow Depth Not available.
7:16 AM 6:29 PM
Last Quarter, 43% visible
METAR KEUF 191358Z AUTO 00000KT 1/2SM FG OVC002 14/13 A3009 RMK AO2 SLP186 I1000 T01390133

Get Your Daily Forecast Email!

Thanks for signing up!

Be on the lookout for a verification email in your inbox.

You'll start receiving the daily forecast at 8 AM.

×

10-Day Weather Forecast

Almanac

Astronomy

Feb. 19, 2017 Rise Set
Actual Time
Civil Twilight
Nautical Twilight
Astronomical Twilight
Moon
Length of Visible Light
Length of Day
Tomorrow will be .
, % of the Moon is Illuminated

Today's Extremes

State Highs State Lows

Community

WunderPhotos

Upload Photos

1,962,540 photos uploaded!

WunderBlog® & News

Nearby

Air Quality

  Air Quality AQ Index Pollutant
Not available.

Snow Depth

Station Depth Elevation

Earthquake Activity

City Distance Mag. Time & Date
Minimum magnitude displayed is 2.5.

Coastal Water Temperatures

Place Temperature

Stations

Nearby Weather Stations

Station Location Temp. Windchill Dew Point Humidity Wind Precip. Elev Updated Type
                   

Watches & Warnings

Dense Fog Advisory
Issued: 2:15 AM CST Feb. 19, 2017 – National Weather Service

... Dense fog advisory in effect until 10 am EST /9 am CST/ this
morning...

The National Weather Service in Tallahassee has issued a dense
fog advisory, which is in effect until 10 am EST /9 am CST/ this
morning.

* Visibility... a quarter mile or less.

Precautionary/preparedness actions...

A dense fog advisory means visibilities will frequently be
reduced to less than one quarter mile. If driving... slow down...
use your headlights... and leave plenty of distance ahead of you.